createdAt,value
2022-09-28T00:01:21.674Z,97365.20
2022-09-28T00:03:54.633Z,97361.20
2022-09-28T00:06:25.533Z,97354.00
2022-09-28T00:08:53.221Z,97359.80
2022-09-28T00:11:23.512Z,97361.60
2022-09-28T00:13:56.598Z,97361.40
2022-09-28T00:16:29.082Z,97351.00
2022-09-28T00:18:56.980Z,97349.00
2022-09-28T00:21:29.177Z,97348.20
2022-09-28T00:24:12.590Z,97343.40
2022-09-28T00:26:58.025Z,97343.20
2022-09-28T00:29:37.312Z,97341.40
2022-09-28T00:32:10.488Z,97332.40
2022-09-28T00:34:43.251Z,97330.00
2022-09-28T00:37:13.113Z,97327.00
2022-09-28T00:39:44.449Z,97322.00
2022-09-28T00:42:20.827Z,97324.00
2022-09-28T00:44:49.314Z,97322.00
2022-09-28T00:47:39.363Z,97323.00
2022-09-28T00:50:33.280Z,97323.00
2022-09-28T00:53:09.336Z,97323.60
2022-09-28T00:55:49.992Z,97331.00
2022-09-28T00:58:25.047Z,97324.20
2022-09-28T01:00:59.222Z,97327.20
2022-09-28T01:03:29.038Z,97326.20
2022-09-28T01:06:02.562Z,97326.80
2022-09-28T01:08:34.138Z,97324.20
2022-09-28T01:11:02.308Z,97329.40
2022-09-28T01:13:33.215Z,97329.80
2022-09-28T01:16:22.005Z,97328.00
2022-09-28T01:19:26.264Z,97327.80
2022-09-28T01:22:32.677Z,97324.00
2022-09-28T01:25:42.278Z,97324.00
2022-09-28T01:28:17.940Z,97324.80
2022-09-28T01:31:21.388Z,97330.00
2022-09-28T01:34:01.048Z,97332.80
2022-09-28T01:36:55.257Z,97329.40
2022-09-28T01:39:47.485Z,97323.00
2022-09-28T01:42:23.752Z,97325.20
2022-09-28T01:44:57.028Z,97322.80
2022-09-28T01:47:29.033Z,97318.80
2022-09-28T01:50:11.014Z,97317.80
2022-09-28T01:53:16.492Z,97320.00
2022-09-28T01:55:51.761Z,97324.20
2022-09-28T01:58:30.754Z,97317.20
2022-09-28T02:01:09.978Z,97320.60
2022-09-28T02:03:48.701Z,97322.80
2022-09-28T02:06:24.668Z,97326.00
2022-09-28T02:09:05.569Z,97326.20
2022-09-28T02:11:37.296Z,97331.00
2022-09-28T02:14:10.319Z,97332.40
2022-09-28T02:16:45.739Z,97333.60
2022-09-28T02:19:25.887Z,97332.80
2022-09-28T02:22:23.181Z,97329.80
2022-09-28T02:25:03.315Z,97333.60
2022-09-28T02:27:46.565Z,97331.20
2022-09-28T02:30:14.612Z,97332.00
2022-09-28T02:32:47.958Z,97324.80
2022-09-28T02:35:20.078Z,97328.40
2022-09-28T02:37:49.830Z,97329.00
2022-09-28T02:40:28.886Z,97326.20
2022-09-28T02:43:28.063Z,97327.20
2022-09-28T02:46:32.755Z,97326.40
2022-09-28T02:49:39.932Z,97331.80
2022-09-28T02:52:43.515Z,97329.20
2022-09-28T02:55:45.394Z,97327.80
2022-09-28T02:58:40.369Z,97334.00
2022-09-28T03:01:45.511Z,97331.20
2022-09-28T03:04:43.922Z,97332.00
2022-09-28T03:07:35.095Z,97335.80
2022-09-28T03:10:17.670Z,97335.00
2022-09-28T03:12:48.951Z,97337.80
2022-09-28T03:15:28.129Z,97339.80
2022-09-28T03:17:57.574Z,97339.20
2022-09-28T03:20:28.185Z,97343.00
2022-09-28T03:23:22.665Z,97339.80
2022-09-28T03:25:43.642Z,97342.80
2022-09-28T03:28:11.216Z,97345.20
2022-09-28T03:30:39.324Z,97345.40
2022-09-28T03:33:07.104Z,97341.20
2022-09-28T03:35:34.694Z,97345.60
2022-09-28T03:38:02.219Z,97348.00
2022-09-28T03:40:29.997Z,97346.00
2022-09-28T03:42:57.640Z,97344.40
2022-09-28T03:45:25.266Z,97345.20
2022-09-28T03:47:52.910Z,97340.40
2022-09-28T03:50:20.514Z,97342.20
2022-09-28T03:52:48.440Z,97345.60
2022-09-28T03:55:16.357Z,97346.60
2022-09-28T03:57:43.892Z,97343.80
2022-09-28T04:00:12.800Z,97343.80
2022-09-28T04:02:40.470Z,97345.20
2022-09-28T04:05:09.354Z,97351.80
2022-09-28T04:07:36.981Z,97347.00
2022-09-28T04:10:05.020Z,97352.60
2022-09-28T04:12:32.650Z,97349.60
2022-09-28T04:15:00.257Z,97346.80
2022-09-28T04:17:27.852Z,97344.00
2022-09-28T04:19:55.413Z,97341.00
2022-09-28T04:22:23.369Z,97345.00
2022-09-28T04:24:50.924Z,97342.20
2022-09-28T04:27:37.121Z,97338.80
2022-09-28T04:30:05.244Z,97337.00
2022-09-28T04:32:32.913Z,97338.60
2022-09-28T04:35:00.533Z,97340.40
2022-09-28T04:37:28.175Z,97340.60
2022-09-28T04:39:55.737Z,97333.60
2022-09-28T04:42:23.329Z,97340.20
2022-09-28T04:44:51.009Z,97341.80
2022-09-28T04:47:19.040Z,97340.60
2022-09-28T04:49:46.722Z,97339.20
2022-09-28T04:52:18.344Z,97338.80
2022-09-28T04:54:46.466Z,97339.20
2022-09-28T04:57:13.984Z,97342.40
2022-09-28T04:59:41.531Z,97345.40
2022-09-28T05:02:09.245Z,97341.60
2022-09-28T05:04:36.881Z,97344.40
2022-09-28T05:07:04.493Z,97350.40
2022-09-28T05:09:35.020Z,97351.20
2022-09-28T05:12:05.935Z,97352.60
2022-09-28T05:14:33.597Z,97353.40
2022-09-28T05:17:01.369Z,97352.40
2022-09-28T05:19:30.334Z,97359.40
2022-09-28T05:22:04.114Z,97358.40
2022-09-28T05:24:31.902Z,97361.00
2022-09-28T05:26:59.458Z,97352.60
2022-09-28T05:29:31.365Z,97352.00
2022-09-28T05:32:01.494Z,97352.40
2022-09-28T05:34:29.738Z,97348.20
2022-09-28T05:36:57.381Z,97350.40
2022-09-28T05:39:25.043Z,97346.40
2022-09-28T05:41:52.733Z,97349.80
2022-09-28T05:44:20.322Z,97346.80
2022-09-28T05:46:47.889Z,97341.60
2022-09-28T05:49:15.620Z,97352.40
2022-09-28T05:51:43.197Z,97344.80
2022-09-28T05:54:10.967Z,97350.00
2022-09-28T05:56:38.620Z,97358.80
2022-09-28T05:59:06.298Z,97348.60
2022-09-28T06:01:34.052Z,97347.60
2022-09-28T06:04:01.672Z,97351.00
2022-09-28T06:06:29.392Z,97352.60
2022-09-28T06:08:56.989Z,97343.40
2022-09-28T06:11:27.847Z,97353.00
2022-09-28T06:13:55.684Z,97350.60
2022-09-28T06:16:24.254Z,97355.60
2022-09-28T06:18:51.863Z,97346.80
2022-09-28T06:21:19.375Z,97355.20
2022-09-28T06:23:49.164Z,97349.40
2022-09-28T06:26:17.945Z,97348.60
2022-09-28T06:28:45.608Z,97351.60
2022-09-28T06:31:13.332Z,97354.40
2022-09-28T06:33:42.165Z,97348.20
2022-09-28T06:36:10.288Z,97342.40
2022-09-28T06:38:38.354Z,97346.20
2022-09-28T06:41:06.567Z,97343.00
2022-09-28T06:43:35.137Z,97349.80
2022-09-28T06:46:03.138Z,97344.00
2022-09-28T06:48:31.755Z,97341.80
2022-09-28T06:51:00.790Z,97344.80
2022-09-28T06:53:29.407Z,97340.60
2022-09-28T06:55:57.583Z,97335.40
2022-09-28T06:58:27.553Z,97345.40
2022-09-28T07:01:00.443Z,97348.00
2022-09-28T07:03:28.113Z,97348.80
2022-09-28T07:05:57.040Z,97351.00
2022-09-28T07:08:26.297Z,97348.20
2022-09-28T07:10:56.280Z,97346.00
2022-09-28T07:16:16.247Z,97332.00
2022-09-28T07:18:43.882Z,97330.80
2022-09-28T07:21:23.611Z,97336.00
2022-09-28T07:23:54.663Z,97341.20
2022-09-28T07:26:24.386Z,97339.00
2022-09-28T07:28:53.868Z,97337.40
2022-09-28T07:31:21.698Z,97333.00
2022-09-28T07:33:53.872Z,97341.60
2022-09-28T07:36:22.689Z,97336.60
2022-09-28T07:38:50.449Z,97325.20
2022-09-28T07:41:22.563Z,97327.00
2022-09-28T07:43:50.262Z,97319.80
2022-09-28T07:46:17.987Z,97327.40
2022-09-28T07:48:46.045Z,97332.20
2022-09-28T07:51:14.059Z,97337.20
2022-09-28T07:53:41.690Z,97333.80
2022-09-28T07:56:09.467Z,97328.80
2022-09-28T07:58:39.653Z,97332.40
2022-09-28T08:01:10.691Z,97338.40
2022-09-28T08:03:39.160Z,97324.40
2022-09-28T08:06:11.256Z,97333.20
2022-09-28T08:08:44.701Z,97339.60
2022-09-28T08:11:16.824Z,97337.20
2022-09-28T08:13:46.439Z,97335.60
2022-09-28T08:16:14.200Z,97335.20
2022-09-28T08:18:42.014Z,97332.80
2022-09-28T08:21:29.443Z,97330.40
2022-09-28T08:23:57.370Z,97328.40
2022-09-28T08:26:25.240Z,97329.40
2022-09-28T08:28:52.819Z,97322.00
2022-09-28T08:31:22.405Z,97328.20
2022-09-28T08:33:53.719Z,97328.60
2022-09-28T08:36:21.262Z,97328.60
2022-09-28T08:38:48.789Z,97320.20
2022-09-28T08:41:28.169Z,97314.80
2022-09-28T08:44:26.132Z,97316.60
2022-09-28T08:47:32.836Z,97314.20
2022-09-28T08:50:05.324Z,97313.40
2022-09-28T08:52:39.525Z,97307.80
2022-09-28T08:55:38.993Z,97308.00
2022-09-28T08:58:20.495Z,97300.80
2022-09-28T09:00:51.707Z,97305.60
2022-09-28T09:03:27.632Z,97297.00
2022-09-28T09:06:19.509Z,97302.40
2022-09-28T09:08:57.349Z,97292.80
2022-09-28T09:11:50.258Z,97298.20
2022-09-28T09:14:37.467Z,97300.40
2022-09-28T09:17:47.068Z,97300.40
2022-09-28T09:20:20.584Z,97291.20
2022-09-28T09:23:00.625Z,97302.80
2022-09-28T09:25:48.266Z,97288.60
2022-09-28T09:29:18.935Z,97296.20
2022-09-28T09:32:22.828Z,97296.20
2022-09-28T09:35:21.321Z,97295.40
2022-09-28T09:38:17.525Z,97292.80
2022-09-28T09:41:07.078Z,97291.40
2022-09-28T09:44:21.171Z,97282.80
2022-09-28T09:47:08.148Z,97280.60
2022-09-28T09:49:55.604Z,97280.80
2022-09-28T09:55:18.662Z,97284.40
2022-09-28T09:57:55.716Z,97279.40
2022-09-28T10:00:24.200Z,97283.00
2022-09-28T10:02:53.349Z,97278.20
2022-09-28T10:05:27.755Z,97275.00
2022-09-28T10:08:16.472Z,97285.60
2022-09-28T10:11:09.468Z,97282.20
2022-09-28T10:13:37.060Z,97278.80
2022-09-28T10:16:07.119Z,97275.60
2022-09-28T10:18:36.420Z,97273.40
2022-09-28T10:21:04.794Z,97277.00
2022-09-28T10:23:36.714Z,97267.80
2022-09-28T10:26:25.349Z,97260.40
2022-09-28T10:29:03.501Z,97264.40
2022-09-28T10:31:40.257Z,97269.40
2022-09-28T10:34:14.865Z,97262.00
2022-09-28T10:36:56.046Z,97261.80
2022-09-28T10:39:55.387Z,97259.40
2022-09-28T10:42:30.624Z,97262.00
2022-09-28T10:45:20.026Z,97261.40
2022-09-28T10:47:47.743Z,97249.20
2022-09-28T10:50:27.568Z,97249.60
2022-09-28T10:53:16.602Z,97257.00
2022-09-28T10:55:59.338Z,97244.20
2022-09-28T10:58:36.163Z,97238.00
2022-09-28T11:01:10.565Z,97252.60
2022-09-28T11:04:02.405Z,97257.80
2022-09-28T11:06:36.967Z,97262.40
2022-09-28T11:09:33.301Z,97260.80
2022-09-28T11:12:06.217Z,97257.80
2022-09-28T11:14:42.979Z,97258.20
2022-09-28T11:17:42.124Z,97250.00
2022-09-28T11:20:27.945Z,97247.60
2022-09-28T11:22:59.157Z,97231.40
2022-09-28T11:25:30.268Z,97233.00
2022-09-28T11:28:04.514Z,97224.80
2022-09-28T11:30:40.987Z,97219.60
2022-09-28T11:33:20.488Z,97215.00
2022-09-28T11:36:17.074Z,97213.00
2022-09-28T11:39:12.241Z,97217.20
2022-09-28T11:42:31.402Z,97216.00
2022-09-28T11:45:39.952Z,97204.80
2022-09-28T11:48:45.391Z,97199.00
2022-09-28T11:51:27.006Z,97192.40
2022-09-28T11:54:20.846Z,97188.40
2022-09-28T11:56:51.352Z,97185.40
2022-09-28T11:59:29.239Z,97186.40
2022-09-28T12:02:05.261Z,97186.00
2022-09-28T12:04:48.717Z,97182.40
2022-09-28T12:07:23.307Z,97180.80
2022-09-28T12:10:04.249Z,97180.20
2022-09-28T12:12:53.484Z,97178.40
2022-09-28T12:15:38.228Z,97181.20
2022-09-28T12:18:24.817Z,97184.60
2022-09-28T12:21:07.691Z,97178.00
2022-09-28T12:23:40.384Z,97182.40
2022-09-28T12:27:02.684Z,97179.60
2022-09-28T12:29:47.606Z,97167.80
2022-09-28T12:32:37.601Z,97178.60
2022-09-28T12:35:36.021Z,97177.80
2022-09-28T12:38:41.464Z,97166.80
2022-09-28T12:41:42.755Z,97162.60
2022-09-28T12:44:46.052Z,97170.60
2022-09-28T12:47:41.534Z,97164.80
2022-09-28T12:50:52.604Z,97171.40
2022-09-28T12:53:40.420Z,97171.60
2022-09-28T12:56:23.575Z,97163.60
2022-09-28T12:59:03.047Z,97161.00
2022-09-28T13:02:19.632Z,97167.80
2022-09-28T13:05:28.462Z,97163.20
2022-09-28T13:08:48.506Z,97165.00
2022-09-28T13:12:00.823Z,97162.60
2022-09-28T13:14:53.238Z,97163.00
2022-09-28T13:17:45.060Z,97158.80
2022-09-28T13:20:51.736Z,97164.00
2022-09-28T13:23:28.910Z,97155.40
2022-09-28T13:26:27.226Z,97157.80
2022-09-28T13:29:04.314Z,97151.20
2022-09-28T13:31:35.974Z,97153.20
2022-09-28T13:34:07.174Z,97149.80
2022-09-28T13:36:37.529Z,97143.20
2022-09-28T13:39:36.197Z,97146.00
2022-09-28T13:42:08.422Z,97146.20
2022-09-28T13:44:47.599Z,97147.60
2022-09-28T13:47:44.433Z,97146.60
2022-09-28T13:50:31.067Z,97147.60
2022-09-28T13:53:16.845Z,97141.20
2022-09-28T13:56:11.470Z,97139.00
2022-09-28T13:58:53.500Z,97134.80
2022-09-28T14:01:26.621Z,97133.00
2022-09-28T14:04:15.999Z,97131.80
2022-09-28T14:06:57.545Z,97131.00
2022-09-28T14:09:48.235Z,97127.00
2022-09-28T14:12:33.813Z,97121.00
2022-09-28T14:15:06.557Z,97120.80
2022-09-28T14:18:24.888Z,97120.80
2022-09-28T14:21:39.633Z,97115.20
2022-09-28T14:24:38.261Z,97110.40
2022-09-28T14:27:55.859Z,97121.80
2022-09-28T14:30:46.702Z,97118.60
2022-09-28T14:33:32.128Z,97116.80
2022-09-28T14:36:40.884Z,97123.80
2022-09-28T14:39:47.785Z,97130.80
2022-09-28T14:42:22.373Z,97120.60
2022-09-28T14:45:06.115Z,97121.40
2022-09-28T14:47:44.792Z,97118.80
2022-09-28T14:50:27.129Z,97126.80
2022-09-28T14:53:03.668Z,97122.00
2022-09-28T14:55:51.113Z,97122.40
2022-09-28T14:58:27.548Z,97131.60
2022-09-28T15:01:17.219Z,97151.00
2022-09-28T15:03:49.489Z,97168.20
2022-09-28T15:06:19.734Z,97169.20
2022-09-28T15:08:56.865Z,97148.40
2022-09-28T15:11:26.352Z,97140.00
2022-09-28T15:14:07.412Z,97161.40
2022-09-28T15:16:35.043Z,97166.20
2022-09-28T15:19:53.599Z,97168.80
2022-09-28T15:22:21.893Z,97182.40
2022-09-28T15:25:02.476Z,97184.00
2022-09-28T15:27:38.022Z,97185.40
2022-09-28T15:30:36.512Z,97199.00
2022-09-28T15:33:24.588Z,97191.20
2022-09-28T15:36:07.165Z,97186.20
2022-09-28T15:38:35.565Z,97174.80
2022-09-28T15:41:06.655Z,97173.00
2022-09-28T15:43:37.187Z,97180.00
2022-09-28T15:46:13.269Z,97172.20
2022-09-28T15:49:02.541Z,97179.20
2022-09-28T15:51:50.060Z,97179.40
2022-09-28T15:54:29.153Z,97178.60
2022-09-28T15:56:59.877Z,97169.80
2022-09-28T15:59:39.420Z,97168.60
2022-09-28T16:02:09.778Z,97173.20
2022-09-28T16:05:01.006Z,97167.00
2022-09-28T16:07:41.604Z,97163.80
2022-09-28T16:10:12.071Z,97166.80
2022-09-28T16:12:39.832Z,97172.80
2022-09-28T16:15:23.450Z,97175.20
2022-09-28T16:17:56.635Z,97187.00
2022-09-28T16:20:34.069Z,97200.20
2022-09-28T16:23:33.355Z,97218.60
2022-09-28T16:26:32.198Z,97212.40
2022-09-28T16:29:07.354Z,97227.20
2022-09-28T16:31:41.369Z,97204.40
2022-09-28T16:34:24.946Z,97212.80
2022-09-28T16:36:52.698Z,97208.80
2022-09-28T16:39:20.720Z,97205.20
2022-09-28T16:41:59.403Z,97212.60
2022-09-28T16:44:32.722Z,97217.00
2022-09-28T16:47:00.870Z,97217.60
2022-09-28T16:49:31.611Z,97222.20
2022-09-28T16:52:00.405Z,97229.20
2022-09-28T16:54:47.871Z,97225.20
2022-09-28T16:57:16.336Z,97217.60
2022-09-28T16:59:43.954Z,97212.00
2022-09-28T17:02:42.158Z,97217.60
2022-09-28T17:05:07.029Z,97220.80
2022-09-28T17:07:34.897Z,97222.40
2022-09-28T17:10:02.615Z,97210.80
2022-09-28T17:12:30.255Z,97218.00
2022-09-28T17:14:58.603Z,97224.20
2022-09-28T17:17:29.886Z,97228.40
2022-09-28T17:19:57.562Z,97235.20
2022-09-28T17:22:25.188Z,97239.80
2022-09-28T17:24:52.710Z,97237.60
2022-09-28T17:27:21.628Z,97231.80
2022-09-28T17:29:49.267Z,97235.80
2022-09-28T17:32:20.065Z,97246.40
2022-09-28T17:34:56.006Z,97257.20
2022-09-28T17:37:28.729Z,97272.20
2022-09-28T17:39:56.276Z,97273.20
2022-09-28T17:42:23.841Z,97271.20
2022-09-28T17:44:51.925Z,97269.20
2022-09-28T17:47:19.558Z,97266.00
2022-09-28T17:49:47.151Z,97261.00
2022-09-28T17:52:14.981Z,97268.60
2022-09-28T17:54:42.733Z,97269.80
2022-09-28T17:57:10.448Z,97264.00
2022-09-28T17:59:38.209Z,97266.00
2022-09-28T18:02:08.459Z,97269.60
2022-09-28T18:04:51.248Z,97275.00
2022-09-28T18:07:19.732Z,97274.20
2022-09-28T18:09:47.442Z,97280.20
2022-09-28T18:12:15.183Z,97279.20
2022-09-28T18:14:42.926Z,97287.20
2022-09-28T18:17:10.606Z,97287.00
2022-09-28T18:19:38.248Z,97290.60
2022-09-28T18:22:05.825Z,97291.80
2022-09-28T18:24:33.505Z,97299.00
2022-09-28T18:27:01.289Z,97296.80
2022-09-28T18:29:33.074Z,97305.60
2022-09-28T18:32:02.410Z,97305.60
2022-09-28T18:34:30.318Z,97308.20
2022-09-28T18:36:57.978Z,97302.80
2022-09-28T18:39:26.533Z,97295.80
2022-09-28T18:41:54.675Z,97296.80
2022-09-28T18:44:22.648Z,97298.00
2022-09-28T18:46:51.549Z,97298.40
2022-09-28T18:49:19.331Z,97292.80
2022-09-28T18:51:47.456Z,97290.40
2022-09-28T18:54:15.820Z,97293.20
2022-09-28T18:56:43.445Z,97295.40
2022-09-28T18:59:12.545Z,97301.00
2022-09-28T19:01:42.007Z,97308.60
2022-09-28T19:04:11.694Z,97309.60
2022-09-28T19:06:42.811Z,97308.60
2022-09-28T19:09:10.973Z,97303.80
2022-09-28T19:11:38.559Z,97299.20
2022-09-28T19:14:06.193Z,97308.40
2022-09-28T19:16:34.110Z,97306.20
2022-09-28T19:19:03.210Z,97313.00
2022-09-28T19:21:31.448Z,97313.20
2022-09-28T19:24:03.988Z,97311.60
2022-09-28T19:26:33.192Z,97308.80
2022-09-28T19:29:02.749Z,97314.40
2022-09-28T19:31:31.135Z,97315.60
2022-09-28T19:33:59.133Z,97316.60
2022-09-28T19:36:28.557Z,97318.20
2022-09-28T19:38:58.785Z,97321.60
2022-09-28T19:41:45.926Z,97326.40
2022-09-28T19:44:27.652Z,97330.40
2022-09-28T19:47:06.681Z,97332.40
2022-09-28T19:49:38.631Z,97339.20
2022-09-28T19:52:15.683Z,97352.60
2022-09-28T19:54:59.147Z,97356.00
2022-09-28T19:57:32.611Z,97360.40
2022-09-28T20:00:03.600Z,97369.20
2022-09-28T20:02:34.354Z,97365.60
2022-09-28T20:05:02.620Z,97360.20
2022-09-28T20:07:32.971Z,97362.20
2022-09-28T20:10:00.764Z,97361.00
2022-09-28T20:12:28.384Z,97356.40
2022-09-28T20:14:56.003Z,97364.20
2022-09-28T20:17:23.844Z,97362.00
2022-09-28T20:19:51.783Z,97360.20
2022-09-28T20:22:20.067Z,97364.80
2022-09-28T20:24:47.609Z,97363.00
2022-09-28T20:27:15.167Z,97377.40
2022-09-28T20:29:43.143Z,97369.80
2022-09-28T20:32:12.228Z,97375.80
2022-09-28T20:34:39.807Z,97388.00
2022-09-28T20:37:07.366Z,97385.20
2022-09-28T20:39:34.972Z,97387.00
2022-09-28T20:42:02.800Z,97395.20
2022-09-28T20:44:31.265Z,97388.60
2022-09-28T20:46:59.373Z,97384.20
2022-09-28T20:49:28.126Z,97380.20
2022-09-28T20:51:55.825Z,97387.80
2022-09-28T20:54:23.490Z,97402.40
2022-09-28T20:56:51.422Z,97405.80
2022-09-28T20:59:22.579Z,97406.00
2022-09-28T21:01:51.036Z,97408.80
2022-09-28T21:04:19.723Z,97403.40
2022-09-28T21:06:47.489Z,97401.00
2022-09-28T21:09:15.029Z,97397.00
2022-09-28T21:11:43.033Z,97406.20
2022-09-28T21:14:10.745Z,97402.80
2022-09-28T21:16:38.874Z,97391.80
2022-09-28T21:19:06.869Z,97403.80
2022-09-28T21:21:34.583Z,97410.40
2022-09-28T21:24:02.575Z,97414.00
2022-09-28T21:26:31.632Z,97420.60
2022-09-28T21:29:05.857Z,97434.00
2022-09-28T21:31:45.671Z,97436.40
2022-09-28T21:34:20.256Z,97422.40
2022-09-28T21:36:51.202Z,97425.40
2022-09-28T21:39:20.207Z,97431.00
2022-09-28T21:41:48.072Z,97433.20
2022-09-28T21:44:15.701Z,97443.00
2022-09-28T21:46:43.429Z,97446.80
2022-09-28T21:49:12.575Z,97453.00
2022-09-28T21:51:40.217Z,97456.80
2022-09-28T21:54:08.481Z,97451.00
2022-09-28T21:56:36.064Z,97449.00
2022-09-28T21:59:03.790Z,97449.40
2022-09-28T22:01:31.774Z,97441.20
2022-09-28T22:04:00.130Z,97444.00
2022-09-28T22:06:28.207Z,97447.20
2022-09-28T22:08:56.744Z,97447.20
2022-09-28T22:11:28.106Z,97458.80
2022-09-28T22:13:59.312Z,97463.00
2022-09-28T22:16:31.184Z,97470.00
2022-09-28T22:18:59.925Z,97477.20
2022-09-28T22:21:32.675Z,97482.00
2022-09-28T22:24:03.356Z,97480.00
2022-09-28T22:26:33.908Z,97490.00
2022-09-28T22:29:08.553Z,97489.80
2022-09-28T22:31:40.083Z,97493.60
2022-09-28T22:34:08.984Z,97496.20
2022-09-28T22:36:36.972Z,97491.60
2022-09-28T22:39:04.798Z,97489.60
2022-09-28T22:41:32.789Z,97489.00
2022-09-28T22:44:00.798Z,97482.20
2022-09-28T22:46:32.184Z,97480.60
2022-09-28T22:49:00.513Z,97487.40
2022-09-28T22:51:30.096Z,97486.00
2022-09-28T22:53:58.671Z,97482.40
2022-09-28T22:56:27.001Z,97481.40
2022-09-28T22:58:54.734Z,97482.80
2022-09-28T23:01:28.864Z,97485.20
2022-09-28T23:03:58.059Z,97482.20
2022-09-28T23:06:28.967Z,97487.00
2022-09-28T23:08:57.558Z,97488.00
2022-09-28T23:11:25.320Z,97490.60
2022-09-28T23:13:56.735Z,97493.00
2022-09-28T23:16:26.821Z,97492.80
2022-09-28T23:18:55.940Z,97489.40
2022-09-28T23:21:26.653Z,97494.40
2022-09-28T23:23:58.846Z,97491.40
2022-09-28T23:26:30.797Z,97491.40
2022-09-28T23:28:59.605Z,97483.20
2022-09-28T23:31:33.147Z,97494.60
2022-09-28T23:34:04.726Z,97508.80
2022-09-28T23:36:34.577Z,97517.60
2022-09-28T23:39:03.217Z,97519.00
2022-09-28T23:41:30.815Z,97527.60
2022-09-28T23:43:58.442Z,97532.60
2022-09-28T23:46:26.245Z,97527.20
2022-09-28T23:48:53.904Z,97527.60
2022-09-28T23:51:21.489Z,97534.20
2022-09-28T23:53:49.178Z,97534.40
2022-09-28T23:56:16.902Z,97538.80
2022-09-28T23:58:45.039Z,97534.80
